Time;durP1;ratioP1;P1;durP2;ratioP2;P2;SDS_P1;SDS_P2;PMS_P1;PMS_P2;Temp;Humidity;BMP_temperature;BMP_pressure;BME280_temperature;BME280_humidity;BME280_pressure;Samples;Min_cycle;Max_cycle;Signal;HPM_P1;HPM_P2
2023/01/07 00:01:03;;;;;;;4.28;1.70;;;;;;;10.29;99.39;101310.44;5075774;28;20437;-55
2023/01/07 00:03:30;;;;;;;5.38;1.90;;;;;;;10.32;99.65;101307.56;5075819;28;20094;-53
2023/01/07 00:05:58;;;;;;;5.28;2.08;;;;;;;10.33;99.62;101295.13;5075334;28;20056;-55
2023/01/07 00:08:29;;;;;;;5.45;2.10;;;;;;;10.36;99.85;101301.00;5075186;28;20048;-53
2023/01/07 00:10:59;;;;;;;7.25;2.70;;;;;;;10.36;99.86;101301.00;5075479;28;20054;-53
2023/01/07 00:13:26;;;;;;;7.57;2.60;;;;;;;10.41;99.69;101297.13;5075791;28;20045;-54
2023/01/07 00:16:03;;;;;;;7.00;2.63;;;;;;;10.41;99.62;101297.13;5075340;28;20041;-54
2023/01/07 00:18:30;;;;;;;10.40;3.03;;;;;;;10.44;99.44;101284.41;5066973;28;20037;-54
2023/01/07 00:20:58;;;;;;;9.38;2.70;;;;;;;10.39;99.23;101289.28;5074451;28;20406;-53
2023/01/07 00:23:26;;;;;;;6.82;2.80;;;;;;;10.37;99.53;101288.59;5074035;28;20044;-53
2023/01/07 00:26:01;;;;;;;5.93;2.70;;;;;;;10.37;99.66;101288.59;5075122;28;20052;-55
2023/01/07 00:28:28;;;;;;;6.72;2.78;;;;;;;10.32;99.34;101285.53;5074582;28;20080;-54
2023/01/07 00:31:01;;;;;;;9.40;2.80;;;;;;;10.32;99.84;101281.03;5075041;28;20044;-53
2023/01/07 00:33:28;;;;;;;7.95;3.22;;;;;;;10.30;99.67;101284.78;5074965;28;20055;-54
2023/01/07 00:36:01;;;;;;;7.35;2.92;;;;;;;10.32;99.73;101282.88;5075117;28;20127;-52
2023/01/07 00:38:28;;;;;;;8.32;3.17;;;;;;;10.29;100.00;101275.97;5074805;28;20461;-53
2023/01/07 00:40:54;;;;;;;6.50;2.78;;;;;;;10.34;100.00;101272.94;5075391;28;20071;-52
2023/01/07 00:43:21;;;;;;;7.05;2.88;;;;;;;10.35;99.43;101275.47;5075118;28;20517;-53
2023/01/07 00:45:48;;;;;;;7.25;2.95;;;;;;;10.28;99.58;101270.84;5074713;28;20440;-53
2023/01/07 00:48:17;;;;;;;7.45;2.63;;;;;;;10.30;99.54;101271.53;5074999;28;20071;-53
2023/01/07 00:50:47;;;;;;;7.95;2.67;;;;;;;10.35;99.41;101275.47;5074508;28;20055;-52
2023/01/07 00:53:14;;;;;;;8.85;2.90;;;;;;;10.33;99.58;101264.16;5074993;28;20044;-53
2023/01/07 00:55:40;;;;;;;7.78;2.60;;;;;;;10.26;99.33;101254.19;5074595;28;20128;-53
2023/01/07 00:58:13;;;;;;;6.90;2.58;;;;;;;10.33;99.83;101255.34;5074766;28;20049;-52
2023/01/07 01:00:41;;;;;;;10.23;2.70;;;;;;;10.33;100.00;101255.34;5074639;28;20379;-53
2023/01/07 01:03:10;;;;;;;13.23;2.70;;;;;;;10.34;99.69;101257.03;5074662;28;20040;-53
2023/01/07 01:05:38;;;;;;;7.55;2.60;;;;;;;10.34;99.34;101255.22;5074403;28;20056;-52
2023/01/07 01:08:07;;;;;;;7.45;2.80;;;;;;;10.26;99.16;101263.03;5073907;28;20076;-53
2023/01/07 01:10:34;;;;;;;6.80;2.63;;;;;;;10.29;99.35;101256.59;5074545;28;20041;-53
2023/01/07 01:13:01;;;;;;;6.75;2.70;;;;;;;10.27;99.29;101254.06;5074327;28;20517;-53
2023/01/07 01:15:27;;;;;;;6.93;2.30;;;;;;;10.30;99.28;101252.97;5073971;28;20401;-53
2023/01/07 01:17:54;;;;;;;7.10;2.45;;;;;;;10.29;99.52;101241.50;5074304;28;20083;-54
2023/01/07 01:20:21;;;;;;;5.30;2.22;;;;;;;10.28;99.65;101241.66;5074273;28;20494;-53
2023/01/07 01:22:48;;;;;;;6.50;2.35;;;;;;;10.29;99.23;101238.84;5074417;28;20122;-53
2023/01/07 01:25:15;;;;;;;7.13;2.20;;;;;;;10.21;99.50;101236.06;5073984;28;20132;-53
2023/01/07 01:27:42;;;;;;;5.43;2.10;;;;;;;10.16;99.54;101243.59;5073938;28;20395;-53
2023/01/07 01:30:09;;;;;;;4.97;1.90;;;;;;;10.19;99.48;101235.38;5073730;28;20053;-54
2023/01/07 01:32:38;;;;;;;5.22;1.95;;;;;;;10.14;99.12;101235.78;5074169;28;20048;-52
2023/01/07 01:35:06;;;;;;;4.40;1.90;;;;;;;10.22;99.30;101245.69;5073744;28;20044;-53
2023/01/07 01:37:32;;;;;;;7.07;2.08;;;;;;;10.25;99.11;101239.28;5073472;28;20382;-53
2023/01/07 01:40:02;;;;;;;6.72;2.00;;;;;;;10.22;99.36;101235.09;5074163;28;20511;-52
2023/01/07 01:42:30;;;;;;;6.25;1.92;;;;;;;10.13;98.92;101239.44;5073863;28;20079;-53
2023/01/07 01:45:00;;;;;;;6.13;1.77;;;;;;;10.18;99.16;101237.19;5074032;28;20048;-53
2023/01/07 01:47:43;;;;;;;5.57;1.85;;;;;;;10.19;98.94;101232.72;5073668;28;20509;-52
2023/01/07 01:50:33;;;;;;;7.03;2.10;;;;;;;10.18;98.44;101242.47;5073701;28;20045;-53
2023/01/07 01:53:06;;;;;;;5.47;1.90;;;;;;;10.17;98.33;101232.03;5088926;28;20569;-53
2023/01/07 01:55:39;;;;;;;3.60;1.73;;;;;;;10.16;98.56;101233.00;5073807;28;20489;-53
2023/01/07 01:58:10;;;;;;;3.58;1.73;;;;;;;10.17;98.89;101224.91;5073658;28;20059;-53
2023/01/07 02:00:37;;;;;;;4.45;1.73;;;;;;;10.12;98.29;101216.53;5073712;28;20040;-53
2023/01/07 02:03:10;;;;;;;3.90;1.63;;;;;;;10.18;98.04;101225.75;5073704;28;20052;-53
2023/01/07 02:05:39;;;;;;;5.78;2.08;;;;;;;10.17;98.50;101227.56;5073400;28;20044;-53
2023/01/07 02:08:07;;;;;;;5.55;2.03;;;;;;;10.15;98.88;101221.56;5073002;28;20060;-53
2023/01/07 02:10:37;;;;;;;7.28;2.00;;;;;;;10.18;98.77;101221.28;5073202;28;20044;-53
2023/01/07 02:13:45;;;;;;;5.50;2.00;;;;;;;10.24;98.39;101219.91;5073656;28;20052;-53
2023/01/07 02:16:25;;;;;;;5.60;2.08;;;;;;;10.15;98.51;101218.06;5073103;28;20044;-53
2023/01/07 02:19:24;;;;;;;4.50;1.95;;;;;;;10.18;98.80;101209.84;5062634;28;20042;-53
2023/01/07 02:22:04;;;;;;;3.80;1.75;;;;;;;10.16;98.40;101223.22;5051128;28;20497;-54
2023/01/07 02:24:52;;;;;;;4.75;1.80;;;;;;;10.18;98.24;101212.50;5052252;28;20045;-53
2023/01/07 02:27:45;;;;;;;4.03;1.75;;;;;;;10.16;98.25;101214.44;5072004;28;20075;-53
2023/01/07 02:30:44;;;;;;;4.20;2.00;;;;;;;10.18;98.05;101223.09;5072893;28;20040;-53
2023/01/07 02:36:02;;;;;;;3.45;1.67;;;;;;;10.08;98.15;101217.81;5110943;27;20368;-53
2023/01/07 02:41:51;;;;;;;5.07;1.80;;;;;;;10.05;98.88;101211.94;5131773;27;20120;-54
2023/01/07 02:44:33;;;;;;;3.95;1.95;;;;;;;10.02;97.64;101212.22;5111169;28;20054;-53
2023/01/07 02:47:08;;;;;;;5.78;2.03;;;;;;;9.95;98.84;101207.47;5111304;28;20396;-55
2023/01/07 02:49:35;;;;;;;5.30;1.80;;;;;;;9.87;98.85;101203.84;5111098;28;20089;-53
2023/01/07 02:52:25;;;;;;;3.17;1.60;;;;;;;10.04;98.70;101202.28;5111253;28;20493;-54
2023/01/07 02:55:00;;;;;;;3.78;1.67;;;;;;;9.93;99.14;101200.63;5110677;28;20119;-55
2023/01/07 02:57:44;;;;;;;3.95;1.70;;;;;;;9.97;98.01;101194.09;5090941;28;20559;-54
2023/01/07 03:03:20;;;;;;;6.35;2.00;;;;;;;10.00;98.37;101204.38;5111424;27;20387;-52
2023/01/07 03:06:28;;;;;;;10.73;1.70;;;;;;;9.97;98.21;101192.25;5110686;28;20047;-53
2023/01/07 03:09:27;;;;;;;4.45;1.80;;;;;;;9.97;98.18;101196.72;5110513;28;20052;-52
2023/01/07 03:14:56;;;;;;;3.75;1.50;;;;;;;9.96;97.64;101189.75;5111291;27;20704;-55
2023/01/07 03:17:30;;;;;;;3.50;1.70;;;;;;;9.81;97.18;101181.38;5111119;28;20035;-54
2023/01/07 03:20:00;;;;;;;3.45;1.70;;;;;;;9.90;97.18;101183.19;5111197;28;20048;-54
2023/01/07 03:22:30;;;;;;;4.50;1.70;;;;;;;9.86;97.09;101173.84;5111342;28;20056;-54
2023/01/07 03:24:58;;;;;;;5.97;1.60;;;;;;;9.88;97.51;101174.53;5111113;28;20048;-54
2023/01/07 03:27:27;;;;;;;3.95;1.80;;;;;;;9.80;97.14;101167.31;5110991;28;20092;-54
2023/01/07 03:29:54;;;;;;;3.28;1.60;;;;;;;9.76;97.56;101168.53;5110954;28;20040;-53
2023/01/07 03:32:30;;;;;;;3.88;1.98;;;;;;;9.64;97.87;101167.00;5111097;28;20044;-54
2023/01/07 03:34:57;;;;;;;5.03;1.98;;;;;;;9.64;98.32;101152.91;5110965;28;20046;-54
2023/01/07 03:37:27;;;;;;;5.03;1.80;;;;;;;9.66;98.50;101158.91;5111189;28;20047;-54
2023/01/07 03:39:55;;;;;;;4.20;1.83;;;;;;;9.67;98.39;101158.75;5111095;28;20063;-54
2023/01/07 03:42:39;;;;;;;5.40;2.05;;;;;;;9.71;98.52;101159.31;5110836;28;20040;-54
2023/01/07 03:45:13;;;;;;;5.60;2.40;;;;;;;9.63;98.57;101154.72;5111090;28;20571;-54
2023/01/07 03:47:44;;;;;;;5.80;2.58;;;;;;;9.58;98.71;101159.59;5110700;28;20044;-55
2023/01/07 03:50:11;;;;;;;4.90;2.33;;;;;;;9.55;99.07;101154.56;5110735;28;20564;-54
2023/01/07 03:52:41;;;;;;;5.80;2.42;;;;;;;9.46;99.02;101150.09;5110763;28;20070;-54
2023/01/07 03:55:09;;;;;;;6.22;2.80;;;;;;;9.57;98.32;101148.16;5110886;28;20101;-54
2023/01/07 03:57:37;;;;;;;6.38;2.53;;;;;;;9.44;98.87;101147.59;5110051;28;20469;-54
2023/01/07 04:00:07;;;;;;;5.03;2.40;;;;;;;9.36;99.57;101136.84;5111052;28;20101;-53
2023/01/07 04:02:44;;;;;;;7.07;2.40;;;;;;;9.53;98.32;101133.53;5110667;28;20058;-54
2023/01/07 04:05:19;;;;;;;6.72;2.53;;;;;;;9.53;97.88;101140.63;5110005;28;20070;-54
2023/01/07 04:07:47;;;;;;;6.85;2.58;;;;;;;9.47;98.92;101134.06;5109628;28;20050;-54
2023/01/07 04:10:14;;;;;;;6.63;2.80;;;;;;;9.38;99.56;101137.53;5108849;28;20056;-54
2023/01/07 04:12:41;;;;;;;5.70;2.50;;;;;;;9.49;98.23;101123.34;5110124;28;20051;-53
2023/01/07 04:15:08;;;;;;;7.25;2.80;;;;;;;9.47;98.20;101125.28;5110096;28;20385;-54
2023/01/07 04:17:35;;;;;;;8.50;2.58;;;;;;;9.45;98.53;101121.94;5110135;28;20397;-54
2023/01/07 04:20:02;;;;;;;7.28;2.67;;;;;;;9.40;99.13;101115.25;5095411;28;20045;-54
2023/01/07 04:22:29;;;;;;;6.25;2.50;;;;;;;9.36;98.52;101119.13;5089679;28;20049;-54
2023/01/07 04:24:56;;;;;;;6.13;2.50;;;;;;;9.31;99.16;101115.22;5081611;28;20071;-54
2023/01/07 04:27:23;;;;;;;6.63;2.85;;;;;;;9.22;99.11;101122.16;5095703;28;20056;-54
2023/01/07 04:29:51;;;;;;;7.25;2.50;;;;;;;9.29;99.11;101114.53;5096244;28;20055;-52
2023/01/07 04:32:18;;;;;;;6.25;2.67;;;;;;;9.34;99.15;101112.31;5096134;28;20040;-53
2023/01/07 04:34:45;;;;;;;6.20;2.63;;;;;;;9.35;99.17;101109.53;5096248;28;20045;-54
2023/01/07 04:37:12;;;;;;;7.10;2.70;;;;;;;9.40;99.09;101109.97;5095788;28;20501;-55
2023/01/07 04:39:39;;;;;;;8.98;2.60;;;;;;;9.40;98.46;101103.81;5096217;28;20127;-54
2023/01/07 04:42:06;;;;;;;5.97;2.50;;;;;;;9.43;97.79;101095.59;5096620;28;20051;-54
2023/01/07 04:44:33;;;;;;;6.53;2.72;;;;;;;9.33;98.04;101092.94;5096033;28;20043;-54
2023/01/07 04:46:59;;;;;;;9.25;2.55;;;;;;;9.31;98.50;101086.09;5095052;28;20498;-54
2023/01/07 04:49:26;;;;;;;9.13;2.70;;;;;;;9.32;98.30;101083.31;5094805;28;20082;-54
2023/01/07 04:51:53;;;;;;;6.20;2.40;;;;;;;9.37;98.52;101077.63;5095778;28;20043;-54
2023/01/07 04:54:21;;;;;;;5.93;2.60;;;;;;;9.34;98.42;101078.72;5096016;28;20044;-54
2023/01/07 04:56:48;;;;;;;7.10;2.70;;;;;;;9.28;98.75;101076.63;5095730;28;20048;-54
2023/01/07 04:59:15;;;;;;;8.77;2.63;;;;;;;9.19;98.55;101073.00;5096006;28;20383;-53
2023/01/07 05:01:42;;;;;;;7.43;2.83;;;;;;;9.31;98.54;101067.56;5095539;28;20051;-54
2023/01/07 05:04:09;;;;;;;7.07;2.70;;;;;;;9.29;98.21;101065.06;5095904;28;20048;-54
2023/01/07 05:06:36;;;;;;;5.90;2.67;;;;;;;9.29;98.89;101064.22;5095191;28;20052;-54
2023/01/07 05:09:03;;;;;;;7.00;2.60;;;;;;;9.18;99.03;101065.19;5095208;28;20044;-54
2023/01/07 05:11:31;;;;;;;8.68;3.03;;;;;;;9.20;99.14;101060.59;5095388;28;20040;-54
2023/01/07 05:13:59;;;;;;;7.38;3.00;;;;;;;9.16;98.89;101057.38;5095123;28;20055;-54
2023/01/07 05:16:29;;;;;;;6.78;3.03;;;;;;;9.16;99.06;101056.53;5095466;28;20126;-54
2023/01/07 05:18:59;;;;;;;6.82;2.92;;;;;;;9.10;99.39;101052.63;5095402;28;20044;-54
2023/01/07 05:21:26;;;;;;;8.63;2.80;;;;;;;9.08;99.47;101046.66;5095288;28;20101;-54
2023/01/07 05:23:53;;;;;;;7.20;2.95;;;;;;;9.01;100.00;101049.00;5095305;28;20089;-54
2023/01/07 05:26:23;;;;;;;7.13;3.00;;;;;;;9.01;100.00;101038.41;5095386;28;20176;-54
2023/01/07 05:28:51;;;;;;;6.85;3.17;;;;;;;8.91;100.00;101039.38;5095261;28;20068;-54
2023/01/07 05:31:19;;;;;;;6.20;2.50;;;;;;;8.91;100.00;101039.38;5094829;28;20493;-53
2023/01/07 05:33:46;;;;;;;6.55;2.75;;;;;;;8.91;100.00;101039.38;5095205;28;20040;-54
2023/01/07 05:36:13;;;;;;;7.78;3.00;;;;;;;8.93;100.00;101040.91;5093988;28;20051;-54
2023/01/07 05:38:40;;;;;;;8.10;2.95;;;;;;;8.95;100.00;101041.63;5095070;28;20044;-53
2023/01/07 05:41:07;;;;;;;6.85;3.00;;;;;;;8.94;100.00;101044.41;5095080;28;20059;-55
2023/01/07 05:43:35;;;;;;;7.95;3.13;;;;;;;8.94;100.00;101041.75;5094945;28;20066;-55
2023/01/07 05:46:01;;;;;;;6.60;3.20;;;;;;;9.00;100.00;101030.59;5094796;28;20056;-54
2023/01/07 05:48:28;;;;;;;8.68;3.28;;;;;;;8.96;100.00;101030.03;5095028;28;20044;-54
2023/01/07 05:50:55;;;;;;;12.63;3.40;;;;;;;8.96;100.00;101029.22;5094671;28;20052;-53
2023/01/07 05:53:22;;;;;;;8.93;3.00;;;;;;;8.98;100.00;101024.63;5094585;28;20506;-55
2023/01/07 05:55:54;;;;;;;7.20;3.30;;;;;;;8.98;100.00;101022.81;5087836;28;20049;-54
2023/01/07 05:58:21;;;;;;;9.73;3.33;;;;;;;9.03;100.00;101030.34;5074349;28;20048;-54
2023/01/07 06:00:48;;;;;;;7.10;3.03;;;;;;;9.01;98.54;101030.47;5074498;28;20071;-54
2023/01/07 06:03:14;;;;;;;7.78;3.20;;;;;;;9.09;99.01;101037.72;5074003;28;20048;-54
2023/01/07 06:05:41;;;;;;;7.25;3.25;;;;;;;9.20;98.38;101031.47;5073746;28;20041;-54
2023/01/07 06:08:08;;;;;;;7.13;2.80;;;;;;;9.24;97.93;101024.94;5073529;28;20063;-54
2023/01/07 06:10:34;;;;;;;8.35;2.95;;;;;;;9.33;97.19;101020.59;5073965;28;20052;-54
2023/01/07 06:13:01;;;;;;;7.93;2.38;;;;;;;9.44;95.94;101019.63;5073894;28;20045;-55
2023/01/07 06:15:28;;;;;;;8.00;2.60;;;;;;;9.43;95.66;101017.97;5073893;28;20032;-54
2023/01/07 06:17:55;;;;;;;7.78;3.58;;;;;;;9.50;94.25;101019.91;5072971;28;20485;-55
2023/01/07 06:20:22;;;;;;;9.63;3.60;;;;;;;9.56;95.25;101024.66;5070525;28;21269;-54
2023/01/07 06:22:49;;;;;;;8.18;3.45;;;;;;;9.67;93.81;101023.66;5074156;28;20078;-54
2023/01/07 06:25:15;;;;;;;8.52;2.60;;;;;;;9.69;94.79;101010.28;5076005;28;20106;-53
2023/01/07 06:27:42;;;;;;;7.95;2.50;;;;;;;9.65;93.87;101019.50;5093935;28;20044;-53
2023/01/07 06:30:10;;;;;;;7.15;2.40;;;;;;;9.60;93.32;101011.97;5093882;28;20048;-54
2023/01/07 06:32:38;;;;;;;6.15;2.35;;;;;;;9.65;93.63;101019.50;5093857;28;20131;-54
2023/01/07 06:35:06;;;;;;;5.95;2.42;;;;;;;9.77;93.42;101013.91;5093993;28;20040;-51
2023/01/07 06:37:33;;;;;;;6.45;2.28;;;;;;;9.76;93.19;101014.03;5093361;28;20404;-54
2023/01/07 06:40:00;;;;;;;6.28;2.53;;;;;;;9.79;93.58;101005.81;5094060;28;20097;-53
2023/01/07 06:42:27;;;;;;;5.05;2.30;;;;;;;9.78;93.47;101012.91;5093951;28;20528;-53
2023/01/07 06:44:54;;;;;;;9.07;2.60;;;;;;;9.84;93.36;101010.66;5093828;28;20040;-53
2023/01/07 06:47:20;;;;;;;6.53;2.45;;;;;;;9.87;92.74;101011.22;5092194;28;20048;-54
2023/01/07 06:49:47;;;;;;;6.38;2.67;;;;;;;9.90;93.66;101007.47;5093547;28;20524;-53
2023/01/07 06:52:13;;;;;;;9.75;2.80;;;;;;;9.86;92.47;101006.06;5093668;28;20048;-53
2023/01/07 06:54:40;;;;;;;7.28;2.95;;;;;;;9.74;93.04;100998.28;5093651;28;20044;-54
2023/01/07 06:57:07;;;;;;;7.25;2.95;;;;;;;9.76;93.05;100987.53;5093760;28;20043;-53
2023/01/07 06:59:33;;;;;;;6.03;2.67;;;;;;;9.83;93.67;100996.59;5093769;28;20093;-54
2023/01/07 07:02:00;;;;;;;9.63;2.85;;;;;;;9.87;93.47;100991.84;5093251;28;20044;-52
2023/01/07 07:04:27;;;;;;;6.80;3.00;;;;;;;9.86;93.77;100987.50;5092575;28;20459;-53
2023/01/07 07:06:54;;;;;;;9.85;2.85;;;;;;;9.81;93.91;100974.72;5084677;28;20044;-54
2023/01/07 07:09:20;;;;;;;6.93;3.15;;;;;;;9.84;93.02;100985.03;5093064;28;20093;-53
2023/01/07 07:11:47;;;;;;;7.72;3.35;;;;;;;9.85;92.62;100981.38;5092919;28;20544;-53
2023/01/07 07:14:14;;;;;;;8.18;3.13;;;;;;;9.89;92.00;100976.63;5093147;28;20044;-53
2023/01/07 07:16:40;;;;;;;7.85;3.30;;;;;;;9.92;92.65;100976.34;5092171;28;20052;-54
2023/01/07 07:19:07;;;;;;;8.07;3.10;;;;;;;9.83;93.10;100971.91;5093384;28;20056;-52
2023/01/07 07:21:34;;;;;;;8.00;3.15;;;;;;;9.82;93.14;100973.72;5093459;28;20121;-52
2023/01/07 07:24:00;;;;;;;8.07;3.20;;;;;;;9.82;92.72;100972.88;5093261;28;20048;-53
2023/01/07 07:26:29;;;;;;;8.13;3.28;;;;;;;9.86;92.31;100976.91;5093450;28;20485;-54
2023/01/07 07:28:55;;;;;;;6.57;3.10;;;;;;;9.82;92.45;100984.31;5093230;28;20048;-51
2023/01/07 07:31:22;;;;;;;8.23;3.08;;;;;;;9.81;92.70;100969.41;5093108;28;20048;-50
2023/01/07 07:33:48;;;;;;;9.75;3.30;;;;;;;9.89;91.97;100976.63;5093254;28;20044;-53
2023/01/07 07:36:15;;;;;;;8.00;3.20;;;;;;;9.79;92.22;100977.50;5092951;28;20068;-52
2023/01/07 07:38:42;;;;;;;12.98;3.25;;;;;;;9.78;92.56;100978.47;5093283;28;20506;-54
2023/01/07 07:41:09;;;;;;;7.07;3.17;;;;;;;9.82;92.02;100973.72;5093244;28;20121;-52
2023/01/07 07:43:36;;;;;;;8.52;2.80;;;;;;;9.80;92.43;100970.38;5093253;28;20047;-54
2023/01/07 07:46:03;;;;;;;6.78;3.15;;;;;;;9.86;91.31;100961.88;5092916;28;20093;-54
2023/01/07 07:48:30;;;;;;;6.72;3.00;;;;;;;9.84;91.72;100963.84;5093316;28;20056;-54
2023/01/07 07:50:56;;;;;;;6.93;2.97;;;;;;;9.82;92.32;100959.63;5092916;28;20127;-53
2023/01/07 07:53:23;;;;;;;7.65;2.80;;;;;;;9.87;91.89;100963.53;5092795;28;20044;-53
2023/01/07 07:55:52;;;;;;;6.45;2.85;;;;;;;9.83;91.30;100956.03;5093156;28;20063;-54
2023/01/07 07:58:18;;;;;;;7.13;3.00;;;;;;;9.87;91.65;100957.41;5092799;28;20477;-54
2023/01/07 08:00:45;;;;;;;7.55;2.80;;;;;;;9.89;91.35;100945.66;5095576;28;20048;-54
2023/01/07 08:03:12;;;;;;;8.73;3.40;;;;;;;9.89;89.60;100958.09;5096580;28;20044;-55
2023/01/07 08:05:41;;;;;;;10.20;3.75;;;;;;;9.90;89.06;100955.28;5096742;28;20044;-54
2023/01/07 08:08:10;;;;;;;10.27;3.53;;;;;;;9.95;86.90;100946.88;5096048;28;20097;-54
2023/01/07 08:10:37;;;;;;;7.88;2.92;;;;;;;9.96;85.71;100946.75;5096745;28;20040;-54
2023/01/07 08:13:04;;;;;;;10.13;3.65;;;;;;;9.95;84.63;100941.59;5096325;28;20109;-54
2023/01/07 08:15:32;;;;;;;8.18;3.40;;;;;;;9.96;84.77;100941.44;5096443;28;20077;-53
2023/01/07 08:18:00;;;;;;;8.07;3.20;;;;;;;10.01;84.48;100934.91;5096647;28;20052;-55
2023/01/07 08:20:27;;;;;;;11.85;3.28;;;;;;;10.03;84.52;100948.84;5091148;28;20059;-54
2023/01/07 08:22:58;;;;;;;12.00;3.83;;;;;;;10.01;85.23;100940.22;5067480;28;20178;-54
2023/01/07 08:25:25;;;;;;;10.75;3.78;;;;;;;10.06;85.88;100935.28;5078215;28;20047;-55
2023/01/07 08:27:53;;;;;;;14.77;4.00;;;;;;;10.07;86.46;100940.44;5095678;28;20044;-54
2023/01/07 08:30:20;;;;;;;6.40;2.50;;;;;;;10.14;84.96;100943.34;5096090;28;20054;-53
2023/01/07 08:32:47;;;;;;;5.18;2.30;;;;;;;10.13;85.70;100945.16;5096179;28;20048;-54
2023/01/07 08:35:15;;;;;;;6.43;2.50;;;;;;;10.04;86.84;100947.84;5096094;28;20051;-54
2023/01/07 08:37:42;;;;;;;5.43;2.33;;;;;;;9.99;87.05;100938.53;5095858;28;20051;-54
2023/01/07 08:40:10;;;;;;;6.32;2.78;;;;;;;10.05;87.13;100929.16;5095999;28;20135;-54
2023/01/07 08:42:37;;;;;;;6.53;2.72;;;;;;;10.06;87.63;100924.66;5096112;28;20040;-54
2023/01/07 08:45:05;;;;;;;9.27;2.70;;;;;;;10.00;88.77;100923.44;5095877;28;20036;-53
2023/01/07 08:47:32;;;;;;;8.27;2.60;;;;;;;9.97;89.70;100915.81;5096171;28;20102;-54
2023/01/07 08:49:59;;;;;;;9.65;2.85;;;;;;;9.91;90.13;100914.53;5095492;28;20071;-54
2023/01/07 08:52:26;;;;;;;5.88;2.50;;;;;;;9.90;90.88;100907.59;5095808;28;20051;-54
2023/01/07 08:54:52;;;;;;;6.97;2.70;;;;;;;9.94;90.39;100905.50;5095537;28;20042;-54
2023/01/07 08:57:19;;;;;;;6.25;2.50;;;;;;;9.89;90.15;100905.09;5095898;28;20047;-54
2023/01/07 08:59:46;;;;;;;5.70;2.40;;;;;;;9.90;89.22;100906.78;5095683;28;20481;-54
2023/01/07 09:02:16;;;;;;;5.82;2.60;;;;;;;9.92;90.06;100908.28;5095597;28;20089;-53
2023/01/07 09:04:43;;;;;;;7.75;2.60;;;;;;;9.92;89.94;100907.44;5095642;28;20044;-54
2023/01/07 09:07:10;;;;;;;5.57;2.38;;;;;;;9.89;90.07;100905.91;5094603;28;20055;-53
2023/01/07 09:09:37;;;;;;;7.20;2.83;;;;;;;9.88;89.53;100901.59;5095545;28;20054;-55
2023/01/07 09:12:05;;;;;;;12.98;2.80;;;;;;;9.93;89.40;100894.06;5094959;28;20435;-54
2023/01/07 09:14:32;;;;;;;7.47;2.58;;;;;;;10.05;89.22;100897.34;5095118;28;20117;-54
2023/01/07 09:16:59;;;;;;;6.78;2.42;;;;;;;9.99;88.57;100897.94;5095217;28;20488;-54
2023/01/07 09:19:26;;;;;;;7.15;3.40;;;;;;;10.15;88.09;100897.28;5095547;28;20079;-54
2023/01/07 09:21:53;;;;;;;9.93;2.78;;;;;;;10.19;88.82;100890.72;5087115;28;20051;-54
2023/01/07 09:24:20;;;;;;;5.07;2.22;;;;;;;10.25;88.12;100889.31;5074853;28;20041;-54
2023/01/07 09:26:46;;;;;;;7.53;2.47;;;;;;;10.36;86.69;100884.63;5089615;28;20044;-54
2023/01/07 09:29:13;;;;;;;6.00;2.47;;;;;;;10.43;86.30;100884.06;5095155;28;20052;-54
2023/01/07 09:31:40;;;;;;;6.75;2.30;;;;;;;10.27;86.26;100876.72;5094992;28;20051;-55
2023/01/07 09:34:06;;;;;;;7.75;2.22;;;;;;;10.44;86.78;100877.75;5094828;28;20043;-54
2023/01/07 09:36:33;;;;;;;6.53;2.53;;;;;;;10.62;85.80;100883.09;5094995;28;20120;-54
2023/01/07 09:39:00;;;;;;;7.10;2.08;;;;;;;10.55;84.96;100872.22;5093058;28;20032;-55
2023/01/07 09:41:48;;;;;;;5.95;2.60;;;;;;;10.48;85.67;100869.38;5094611;28;20440;-53
2023/01/07 09:47:13;;;;;;;8.13;2.50;;;;;;;10.44;85.16;100868.00;5110909;27;20883;-54
2023/01/07 09:49:41;;;;;;;8.60;2.50;;;;;;;10.49;85.30;100868.38;5110318;28;20047;-55
2023/01/07 09:52:14;;;;;;;6.88;2.95;;;;;;;10.53;84.95;100864.44;5110796;28;20097;-56
2023/01/07 09:54:47;;;;;;;6.47;2.47;;;;;;;10.54;84.12;100867.94;5109126;28;20044;-55
2023/01/07 09:57:16;;;;;;;10.07;2.55;;;;;;;10.61;84.64;100861.03;5114131;28;20040;-54
2023/01/07 09:59:44;;;;;;;5.45;2.35;;;;;;;10.70;83.46;100860.13;5110246;28;20047;-54
2023/01/07 10:02:33;;;;;;;6.47;2.80;;;;;;;10.56;84.28;100863.31;5110993;28;20044;-54
2023/01/07 10:05:16;;;;;;;8.80;2.50;;;;;;;10.64;83.73;100852.78;5110705;28;20181;-53
2023/01/07 10:07:55;;;;;;;9.23;2.80;;;;;;;10.65;82.74;100850.94;5109171;28;20050;-54
2023/01/07 10:10:41;;;;;;;6.75;2.38;;;;;;;10.79;82.45;100838.94;5108525;28;20089;-54
2023/01/07 10:16:37;;;;;;;8.75;2.72;;;;;;;10.77;82.96;100831.16;5068799;27;20137;-53
2023/01/07 10:19:18;;;;;;;6.47;2.85;;;;;;;10.78;81.51;100824.84;5107162;28;20055;-54
2023/01/07 10:21:54;;;;;;;7.28;2.60;;;;;;;10.93;80.94;100818.03;5088056;28;20048;-54
2023/01/07 10:24:27;;;;;;;8.70;3.13;;;;;;;10.75;81.26;100819.84;5092590;28;20163;-53
2023/01/07 10:26:59;;;;;;;6.95;2.90;;;;;;;10.90;81.44;100817.50;5092474;28;20040;-53
2023/01/07 10:29:38;;;;;;;8.27;3.20;;;;;;;10.97;80.61;100815.03;5092410;28;20505;-53
2023/01/07 10:32:12;;;;;;;6.63;2.90;;;;;;;10.94;79.97;100817.03;5076115;28;20517;-53
2023/01/07 10:34:49;;;;;;;6.82;2.90;;;;;;;10.92;79.27;100807.56;5077706;28;20054;-53
2023/01/07 10:37:26;;;;;;;8.68;3.20;;;;;;;10.97;79.98;100796.47;5081097;28;20044;-53
2023/01/07 10:40:18;;;;;;;9.30;2.97;;;;;;;11.05;79.44;100789.41;5086614;28;20044;-54
2023/01/07 10:43:24;;;;;;;9.95;2.90;;;;;;;11.24;78.82;100790.16;5090139;28;20052;-53
2023/01/07 10:46:17;;;;;;;6.68;2.97;;;;;;;11.46;76.97;100791.44;5091596;28;20040;-56
2023/01/07 10:49:06;;;;;;;8.13;3.03;;;;;;;11.63;75.49;100782.56;5076867;28;20564;-53
2023/01/07 10:52:01;;;;;;;8.23;3.20;;;;;;;11.75;73.78;100766.34;5072743;28;20047;-53
2023/01/07 10:54:40;;;;;;;7.25;3.03;;;;;;;11.87;74.16;100759.72;5072622;28;20141;-54
2023/01/07 10:57:16;;;;;;;8.65;3.50;;;;;;;12.05;73.52;100754.31;5088815;28;20047;-54
2023/01/07 10:59:47;;;;;;;8.55;3.47;;;;;;;12.10;72.79;100752.00;5073187;28;20056;-54
2023/01/07 11:02:19;;;;;;;7.30;3.10;;;;;;;12.33;71.65;100746.03;5069800;28;20044;-53
2023/01/07 11:04:46;;;;;;;7.03;3.22;;;;;;;13.24;67.45;100752.91;5070217;28;20519;-55
2023/01/07 11:07:28;;;;;;;7.57;3.53;;;;;;;13.17;66.21;100739.47;5076119;28;20528;-54
2023/01/07 11:09:59;;;;;;;9.70;3.70;;;;;;;12.96;67.02;100740.00;5083689;28;20135;-53
2023/01/07 11:12:39;;;;;;;6.97;3.40;;;;;;;12.78;68.19;100742.88;5074614;28;20136;-53
2023/01/07 11:15:16;;;;;;;11.13;3.75;;;;;;;12.07;70.14;100725.75;5079922;28;20153;-55
2023/01/07 11:17:50;;;;;;;9.90;3.80;;;;;;;11.65;72.03;100713.34;5062336;28;20951;-54
2023/01/07 11:20:53;;;;;;;8.65;4.22;;;;;;;11.68;72.99;100710.34;5094135;28;20044;-55
2023/01/07 11:23:37;;;;;;;10.02;3.92;;;;;;;11.46;72.42;100703.78;5078528;28;20085;-54
2023/01/07 11:26:25;;;;;;;12.32;4.30;;;;;;;11.47;73.32;100694.84;5074510;28;20089;-55
2023/01/07 11:28:57;;;;;;;9.85;3.92;;;;;;;11.33;72.92;100694.47;5053454;28;20040;-55
2023/01/07 11:31:53;;;;;;;8.95;3.80;;;;;;;11.64;72.53;100685.09;5068262;28;20496;-55
2023/01/07 11:34:45;;;;;;;8.23;3.72;;;;;;;12.19;69.95;100681.06;5037323;28;20048;-55
2023/01/07 11:37:29;;;;;;;9.10;3.83;;;;;;;12.00;68.48;100671.56;5074093;28;20056;-55
2023/01/07 11:39:58;;;;;;;9.57;3.50;;;;;;;12.03;69.67;100665.91;5051641;28;20040;-54
2023/01/07 11:42:42;;;;;;;9.23;3.42;;;;;;;11.81;69.10;100667.38;5073433;28;20048;-55
2023/01/07 11:45:19;;;;;;;7.28;3.33;;;;;;;11.67;69.37;100653.69;5062724;28;20049;-54
2023/01/07 11:48:07;;;;;;;7.97;3.60;;;;;;;11.64;70.09;100653.19;5052596;28;20514;-54
2023/01/07 11:50:38;;;;;;;11.55;3.90;;;;;;;11.67;71.30;100639.59;5060776;28;20048;-54
2023/01/07 11:53:19;;;;;;;7.83;3.53;;;;;;;11.92;69.79;100645.81;5077340;28;20489;-54
2023/01/07 11:56:10;;;;;;;7.85;3.25;;;;;;;11.72;70.46;100624.81;5059256;28;20048;-54
2023/01/07 11:58:44;;;;;;;8.80;3.53;;;;;;;11.62;68.75;100632.09;5066079;28;20135;-54
2023/01/07 12:01:17;;;;;;;7.75;3.28;;;;;;;11.59;69.32;100640.41;5063846;28;20048;-54
2023/01/07 12:06:30;;;;;;;7.07;2.95;;;;;;;11.53;69.93;100627.75;5115241;27;20696;-55
2023/01/07 12:09:13;;;;;;;11.68;3.15;;;;;;;11.53;70.05;100628.63;5111232;27;20131;-55